Time;durP1;ratioP1;P1;durP2;ratioP2;P2;SDS_P1;SDS_P2;PMS_P1;PMS_P2;Temp;Humidity;BMP_temperature;BMP_pressure;BME280_temperature;BME280_humidity;BME280_pressure;Samples;Min_cycle;Max_cycle;Signal;HPM_P1;HPM_P2
2021/04/02 00:01:49;;;;;;;7.50;4.97;;;;;;;10.24;51.42;99230.19;5094828;28;42170;-73
2021/04/02 00:04:16;;;;;;;7.00;4.47;;;;;;;9.91;51.05;99195.78;5093847;28;40402;-73
2021/04/02 00:06:43;;;;;;;5.93;4.30;;;;;;;10.11;50.27;99245.84;5094882;28;41480;-74
2021/04/02 00:09:12;;;;;;;4.63;3.40;;;;;;;10.00;49.93;99240.28;5094391;28;43256;-73
2021/04/02 00:11:41;;;;;;;7.20;4.40;;;;;;;9.87;49.61;99223.38;5094454;28;42198;-73
2021/04/02 00:14:09;;;;;;;6.57;4.40;;;;;;;9.87;49.85;99237.44;5112345;28;40930;-73
2021/04/02 00:16:36;;;;;;;5.40;3.93;;;;;;;9.84;49.58;99239.41;5112747;28;41379;-73
2021/04/02 00:19:04;;;;;;;4.53;3.50;;;;;;;9.82;49.69;99233.31;5112757;28;43524;-73
2021/04/02 00:21:31;;;;;;;6.60;3.83;;;;;;;9.67;49.91;99212.03;5112020;28;42324;-74
2021/04/02 00:23:59;;;;;;;5.37;4.00;;;;;;;9.68;50.24;99224.34;5078314;28;39876;-73
2021/04/02 00:26:27;;;;;;;6.60;4.07;;;;;;;9.62;50.63;99227.31;5094757;28;42132;-73
2021/04/02 00:28:56;;;;;;;5.57;4.37;;;;;;;9.57;50.83;99223.19;5112715;28;43484;-74
2021/04/02 00:31:23;;;;;;;5.73;3.87;;;;;;;9.50;51.17;99227.97;5112077;28;42921;-73
2021/04/02 00:33:51;;;;;;;9.43;4.17;;;;;;;9.45;51.24;99222.06;5112648;28;41591;-73
2021/04/02 00:36:18;;;;;;;5.50;4.20;;;;;;;9.39;51.48;99214.44;5094247;28;41657;-73
2021/04/02 00:38:45;;;;;;;6.03;4.17;;;;;;;9.35;52.22;99211.09;5112300;28;43399;-73
2021/04/02 00:41:14;;;;;;;6.53;3.93;;;;;;;9.30;52.25;99210.47;5112253;28;42754;-74
2021/04/02 00:43:43;;;;;;;6.87;4.37;;;;;;;9.23;52.78;99208.25;5093937;28;41604;-73
2021/04/02 00:46:11;;;;;;;6.50;3.73;;;;;;;9.16;52.56;99209.47;5111873;28;41391;-73
2021/04/02 00:48:42;;;;;;;6.60;4.00;;;;;;;9.06;53.33;99200.31;5112109;28;42516;-74
2021/04/02 00:51:11;;;;;;;7.20;4.40;;;;;;;9.04;53.29;99216.22;5112132;28;42995;-74
2021/04/02 00:53:40;;;;;;;3.60;3.30;;;;;;;8.99;53.24;99216.47;5073875;28;39832;-73
2021/04/02 00:56:08;;;;;;;4.67;3.87;;;;;;;8.94;53.29;99212.34;5089197;28;42221;-73
2021/04/02 00:58:36;;;;;;;7.03;4.20;;;;;;;8.89;53.55;99220.53;5112324;28;43026;-74
2021/04/02 01:01:06;;;;;;;5.83;4.13;;;;;;;8.77;54.13;99212.34;5112094;28;42009;-73
2021/04/02 01:03:35;;;;;;;7.50;4.67;;;;;;;8.75;53.92;99223.00;5094924;28;40449;-73
2021/04/02 01:06:09;;;;;;;6.70;4.53;;;;;;;8.71;54.40;99220.56;5112218;28;40991;-73
2021/04/02 01:08:38;;;;;;;5.87;4.10;;;;;;;8.66;54.23;99226.06;5077613;28;42653;-73
2021/04/02 01:11:12;;;;;;;5.40;4.13;;;;;;;8.62;54.90;99222.72;5092938;28;41970;-74
2021/04/02 01:13:41;;;;;;;5.17;4.17;;;;;;;8.56;55.04;99214.25;5111458;28;40770;-73
2021/04/02 01:16:14;;;;;;;6.57;4.20;;;;;;;8.51;55.21;99218.91;5093565;28;41558;-73
2021/04/02 01:18:48;;;;;;;5.93;3.97;;;;;;;8.47;55.07;99223.47;5127680;27;42309;-72
2021/04/02 01:21:21;;;;;;;9.37;5.40;;;;;;;8.41;55.67;99233.44;5093567;28;42298;-73
2021/04/02 01:24:06;;;;;;;7.67;4.87;;;;;;;8.37;55.42;99226.63;5111560;28;41427;-73
2021/04/02 01:27:03;;;;;;;4.60;4.20;;;;;;;8.36;55.79;99219.63;5112242;28;41831;-73
2021/04/02 01:29:38;;;;;;;9.97;4.30;;;;;;;8.33;55.96;99219.78;5094554;28;42593;-73
2021/04/02 01:32:09;;;;;;;6.77;4.60;;;;;;;8.32;56.49;99220.69;5073189;28;42284;-73
2021/04/02 01:34:40;;;;;;;4.90;4.33;;;;;;;8.29;56.26;99217.22;5073489;28;41575;-74
2021/04/02 01:37:12;;;;;;;7.03;4.77;;;;;;;8.22;57.19;99218.47;5073034;28;42506;-73
2021/04/02 01:39:43;;;;;;;5.80;4.20;;;;;;;8.23;57.12;99217.53;5108834;28;42501;-73
2021/04/02 01:42:17;;;;;;;6.23;4.70;;;;;;;8.23;57.25;99227.25;5076156;28;42121;-73
2021/04/02 01:44:47;;;;;;;5.70;4.63;;;;;;;8.25;57.01;99239.44;5093492;28;41554;-73
2021/04/02 01:47:17;;;;;;;5.40;4.80;;;;;;;8.23;56.94;99235.16;5093096;28;42306;-73
2021/04/02 01:49:45;;;;;;;5.30;4.80;;;;;;;8.20;56.94;99233.50;5093346;28;42615;-73
2021/04/02 01:52:13;;;;;;;5.97;5.27;;;;;;;8.20;56.85;99230.88;5092617;28;43048;-73
2021/04/02 01:54:41;;;;;;;8.80;5.20;;;;;;;8.20;56.89;99240.56;5076986;28;41116;-73
2021/04/02 01:57:11;;;;;;;5.50;4.60;;;;;;;8.19;57.13;99237.06;5110874;28;42460;-73
2021/04/02 01:59:41;;;;;;;5.87;4.93;;;;;;;8.19;57.25;99236.22;5093244;28;42510;-73
2021/04/02 02:02:15;;;;;;;5.77;4.77;;;;;;;8.17;57.55;99231.00;5093110;28;42095;-72
2021/04/02 02:04:45;;;;;;;5.07;4.57;;;;;;;8.17;57.97;99225.72;5092848;28;41888;-73
2021/04/02 02:07:15;;;;;;;6.10;5.10;;;;;;;8.15;57.47;99224.97;5091876;28;41709;-73
2021/04/02 02:09:53;;;;;;;6.27;5.60;;;;;;;8.12;58.17;99219.84;5110807;28;43478;-73
2021/04/02 02:12:30;;;;;;;6.50;5.80;;;;;;;8.12;57.77;99232.16;5110842;28;42339;-73
2021/04/02 02:15:07;;;;;;;5.83;5.23;;;;;;;8.11;57.46;99231.31;5093220;28;41654;-73
2021/04/02 02:17:40;;;;;;;7.43;5.47;;;;;;;8.08;57.58;99236.72;5073020;28;40664;-73
2021/04/02 02:20:11;;;;;;;6.27;5.33;;;;;;;8.06;57.69;99238.56;5072855;28;42660;-73
2021/04/02 02:22:41;;;;;;;7.03;5.40;;;;;;;8.05;57.98;99231.56;5095868;28;41996;-73
2021/04/02 02:25:12;;;;;;;6.80;5.67;;;;;;;8.05;58.38;99221.03;5092769;28;41016;-73
2021/04/02 02:27:45;;;;;;;6.30;5.70;;;;;;;8.04;58.15;99235.13;5093012;28;42009;-73
2021/04/02 02:30:19;;;;;;;8.10;5.93;;;;;;;8.01;58.30;99230.03;5110935;28;42682;-73
2021/04/02 02:32:53;;;;;;;6.20;5.60;;;;;;;7.99;58.66;99231.88;5110507;28;43312;-73
2021/04/02 02:35:20;;;;;;;7.23;6.03;;;;;;;7.95;58.44;99230.28;5110848;28;40818;-73
2021/04/02 02:37:55;;;;;;;6.60;5.63;;;;;;;7.90;58.71;99221.75;5092389;28;41669;-73
2021/04/02 02:40:25;;;;;;;7.33;6.57;;;;;;;7.86;58.54;99230.72;5092798;28;43027;-73
2021/04/02 02:42:54;;;;;;;6.07;5.53;;;;;;;7.83;58.56;99230.84;5110527;28;43540;-73
2021/04/02 02:45:23;;;;;;;7.83;5.37;;;;;;;7.77;58.91;99225.88;5076167;28;40071;-73
2021/04/02 02:47:52;;;;;;;6.40;5.80;;;;;;;7.74;58.50;99232.13;5075405;28;41946;-73
2021/04/02 02:50:23;;;;;;;12.97;7.90;;;;;;;7.71;58.69;99226.13;5110434;28;42413;-73
2021/04/02 02:52:52;;;;;;;7.50;6.17;;;;;;;7.67;59.38;99224.56;5092259;28;42980;-73
2021/04/02 02:55:22;;;;;;;7.00;6.27;;;;;;;7.63;59.20;99228.28;5109897;28;40919;-73
2021/04/02 02:57:51;;;;;;;7.10;6.40;;;;;;;7.60;60.17;99233.66;5091414;28;41445;-73
2021/04/02 03:00:21;;;;;;;7.23;6.37;;;;;;;7.57;59.63;99235.50;5091799;28;43535;-74
2021/04/02 03:02:51;;;;;;;7.10;6.03;;;;;;;7.54;59.55;99235.63;5110460;28;42746;-72
2021/04/02 03:05:21;;;;;;;7.30;6.33;;;;;;;7.52;59.66;99237.50;5110153;28;40861;-73
2021/04/02 03:07:53;;;;;;;7.00;6.37;;;;;;;7.51;59.60;99234.94;5092156;28;42368;-73
2021/04/02 03:10:21;;;;;;;7.93;6.30;;;;;;;7.50;60.29;99233.22;5110240;28;42627;-72
2021/04/02 03:12:49;;;;;;;7.60;6.60;;;;;;;7.51;60.26;99229.66;5091570;28;42521;-73
2021/04/02 03:15:19;;;;;;;7.20;6.60;;;;;;;7.48;61.34;99222.75;5091508;28;41554;-73
2021/04/02 03:17:52;;;;;;;7.27;6.57;;;;;;;7.48;60.71;99233.28;5091228;28;42800;-73
2021/04/02 03:20:21;;;;;;;6.70;6.10;;;;;;;7.48;60.45;99235.06;5091746;28;42679;-72
2021/04/02 03:22:51;;;;;;;9.03;6.83;;;;;;;7.48;60.30;99240.34;5091368;28;42486;-73
2021/04/02 03:25:26;;;;;;;6.23;5.63;;;;;;;7.45;59.92;99235.19;5092461;28;20222;-73
2021/04/02 03:28:00;;;;;;;7.93;6.87;;;;;;;7.43;60.08;99227.34;5092642;28;40956;-74
2021/04/02 03:30:40;;;;;;;7.20;6.50;;;;;;;7.42;59.80;99238.81;5091833;28;42340;-73
2021/04/02 03:33:14;;;;;;;6.20;5.60;;;;;;;7.30;59.72;99228.81;5091903;28;42072;-74
2021/04/02 03:35:48;;;;;;;8.40;7.47;;;;;;;7.35;60.14;99240.03;5098301;28;40761;-73
2021/04/02 03:38:21;;;;;;;7.17;6.47;;;;;;;7.32;60.04;99244.56;5097623;28;41451;-73
2021/04/02 03:40:51;;;;;;;7.03;6.33;;;;;;;7.31;59.88;99251.59;5099456;28;42055;-73
2021/04/02 03:43:21;;;;;;;9.13;6.27;;;;;;;7.29;60.47;99239.44;5097526;28;42761;-73
2021/04/02 03:45:50;;;;;;;7.30;6.70;;;;;;;7.27;60.56;99244.78;5098081;28;41346;-73
2021/04/02 03:48:20;;;;;;;8.83;7.93;;;;;;;7.24;61.67;99247.53;5098149;28;42374;-73
2021/04/02 03:50:56;;;;;;;8.10;7.30;;;;;;;7.22;61.69;99244.97;5096033;28;42787;-73
2021/04/02 03:53:28;;;;;;;8.73;7.93;;;;;;;7.21;61.55;99252.91;5077398;28;42280;-74
2021/04/02 03:56:00;;;;;;;8.07;7.03;;;;;;;7.19;61.92;99250.34;5077858;28;41606;-74
2021/04/02 03:58:28;;;;;;;8.93;7.70;;;;;;;7.17;61.55;99246.09;5072094;28;42063;-73
2021/04/02 04:01:01;;;;;;;7.90;7.10;;;;;;;7.14;61.53;99251.47;5098201;28;42742;-74
2021/04/02 04:03:29;;;;;;;8.57;7.70;;;;;;;7.12;62.22;99248.03;5098132;28;42913;-74
2021/04/02 04:06:00;;;;;;;8.07;7.27;;;;;;;7.09;62.24;99253.44;5098234;28;40589;-74
2021/04/02 04:08:31;;;;;;;8.83;7.90;;;;;;;7.07;62.27;99261.41;5098000;28;41617;-73
2021/04/02 04:11:04;;;;;;;7.83;7.03;;;;;;;7.03;62.04;99254.56;5097853;28;42785;-74
2021/04/02 04:13:36;;;;;;;7.33;6.63;;;;;;;6.99;61.70;99263.50;5097413;28;42327;-73
2021/04/02 04:16:06;;;;;;;8.30;7.43;;;;;;;6.95;62.04;99261.06;5098220;28;41814;-74
2021/04/02 04:18:36;;;;;;;8.53;7.07;;;;;;;6.91;62.66;99257.72;5097707;28;41464;-74
2021/04/02 04:21:06;;;;;;;9.30;7.77;;;;;;;6.87;62.86;99258.75;5116080;28;42628;-73
2021/04/02 04:23:52;;;;;;;8.17;7.37;;;;;;;6.75;62.88;99253.97;5097161;28;43003;-73
2021/04/02 04:26:21;;;;;;;7.57;6.83;;;;;;;6.76;62.65;99260.97;5098177;28;40705;-73
2021/04/02 04:28:52;;;;;;;7.80;7.10;;;;;;;6.70;62.57;99264.69;5115814;28;42139;-73
2021/04/02 04:31:20;;;;;;;7.67;6.97;;;;;;;6.68;62.98;99269.16;5116147;28;42874;-73
2021/04/02 04:33:49;;;;;;;6.80;6.20;;;;;;;6.63;62.69;99273.75;5115305;28;42410;-73
2021/04/02 04:36:18;;;;;;;8.40;7.37;;;;;;;6.59;62.61;99269.53;5097932;28;41651;-73
2021/04/02 04:38:47;;;;;;;6.40;5.80;;;;;;;6.55;62.34;99265.31;5114826;28;42627;-74
2021/04/02 04:41:14;;;;;;;6.90;6.20;;;;;;;6.51;62.30;99262.84;5097079;28;42649;-73
2021/04/02 04:43:43;;;;;;;7.90;7.10;;;;;;;6.44;62.10;99275.38;5097585;28;42774;-73
2021/04/02 04:46:11;;;;;;;6.63;6.03;;;;;;;6.41;61.87;99275.53;5093936;28;39929;-73
2021/04/02 04:48:39;;;;;;;6.83;6.07;;;;;;;6.36;61.74;99277.47;5094160;28;41669;-73
2021/04/02 04:51:07;;;;;;;7.93;7.13;;;;;;;6.29;61.62;99286.53;5111680;28;42535;-74
2021/04/02 04:53:39;;;;;;;7.67;6.57;;;;;;;6.22;61.62;99280.63;5111952;28;43174;-74
2021/04/02 04:56:07;;;;;;;7.03;6.40;;;;;;;6.13;62.05;99276.56;5112450;28;40891;-74
2021/04/02 04:58:39;;;;;;;8.77;7.87;;;;;;;6.16;62.53;99287.91;5094689;28;40932;-73
2021/04/02 05:01:11;;;;;;;7.73;7.03;;;;;;;6.11;62.19;99288.91;5111950;28;43440;-74
2021/04/02 05:03:40;;;;;;;7.43;6.73;;;;;;;5.95;62.17;99265.88;5111488;28;43110;-73
2021/04/02 05:06:08;;;;;;;7.50;6.80;;;;;;;6.04;62.62;99284.81;5112197;28;41569;-74
2021/04/02 05:08:40;;;;;;;7.17;6.47;;;;;;;6.03;62.50;99290.13;5111375;28;41572;-73
2021/04/02 05:11:10;;;;;;;8.13;7.33;;;;;;;5.97;62.57;99296.47;5094635;28;42816;-74
2021/04/02 05:13:38;;;;;;;7.53;6.43;;;;;;;6.02;62.37;99297.16;5094113;28;41275;-73
2021/04/02 05:16:06;;;;;;;8.03;7.23;;;;;;;6.03;62.07;99300.66;5111789;28;40778;-73
2021/04/02 05:18:34;;;;;;;7.27;6.10;;;;;;;6.05;61.93;99302.31;5093066;28;41450;-73
2021/04/02 05:21:02;;;;;;;7.10;6.40;;;;;;;6.07;61.68;99303.09;5111806;28;42854;-73
2021/04/02 05:23:29;;;;;;;8.83;7.77;;;;;;;6.08;61.41;99296.91;5112575;27;42720;-73
2021/04/02 05:25:58;;;;;;;7.07;6.47;;;;;;;6.12;61.60;99302.94;5132276;27;40819;-73
2021/04/02 05:28:25;;;;;;;7.83;6.53;;;;;;;6.16;61.66;99306.31;5113508;27;42407;-73
2021/04/02 05:30:52;;;;;;;6.67;5.87;;;;;;;6.20;61.23;99307.88;5113657;27;43549;-73
2021/04/02 05:33:19;;;;;;;6.97;6.27;;;;;;;6.23;61.21;99307.78;5120779;27;42430;-73
2021/04/02 05:35:47;;;;;;;6.70;6.00;;;;;;;6.17;61.31;99294.88;5111712;28;40663;-73
2021/04/02 05:38:14;;;;;;;6.80;6.10;;;;;;;6.24;60.90;99299.84;5093646;28;42363;-73
2021/04/02 05:40:41;;;;;;;7.93;7.13;;;;;;;6.42;61.40;99314.94;5093773;28;41714;-74
2021/04/02 05:43:18;;;;;;;7.70;6.90;;;;;;;6.39;61.24;99293.13;5092274;28;42266;-74
2021/04/02 05:45:46;;;;;;;6.87;6.17;;;;;;;6.56;61.59;99311.75;5111309;28;40811;-73
2021/04/02 05:48:16;;;;;;;7.50;6.70;;;;;;;6.68;62.14;99311.25;5109445;28;41738;-73
2021/04/02 05:50:43;;;;;;;7.87;7.13;;;;;;;6.81;61.47;99324.78;5110659;28;42548;-73
2021/04/02 05:53:12;;;;;;;8.27;7.43;;;;;;;6.91;61.82;99322.69;5093137;28;41382;-73
2021/04/02 05:55:41;;;;;;;8.87;7.47;;;;;;;7.03;61.44;99322.19;5093344;28;40102;-74
2021/04/02 05:58:11;;;;;;;7.87;7.10;;;;;;;7.18;61.40;99321.53;5092267;28;42259;-73
2021/04/02 06:00:40;;;;;;;9.20;7.97;;;;;;;7.27;61.08;99315.91;5093173;28;43178;-74
2021/04/02 06:03:08;;;;;;;8.83;7.93;;;;;;;7.34;61.28;99308.59;5093453;28;41377;-73
2021/04/02 06:05:37;;;;;;;8.30;7.50;;;;;;;7.61;61.27;99325.84;5110081;28;41652;-73
2021/04/02 06:08:05;;;;;;;8.80;8.00;;;;;;;7.80;60.72;99332.03;5075609;28;40871;-73
2021/04/02 06:10:32;;;;;;;8.97;7.90;;;;;;;8.05;60.34;99336.22;5109423;28;42815;-75
2021/04/02 06:13:00;;;;;;;8.20;7.43;;;;;;;8.24;60.35;99338.00;5108554;28;42409;-73
2021/04/02 06:15:31;;;;;;;8.20;7.33;;;;;;;8.40;59.67;99332.91;5109908;28;41272;-73
2021/04/02 06:18:00;;;;;;;8.70;7.90;;;;;;;8.70;59.07;99341.16;5107179;28;42381;-75
2021/04/02 06:20:29;;;;;;;8.13;7.03;;;;;;;8.94;58.46;99349.72;5089801;28;43099;-74
2021/04/02 06:23:14;;;;;;;7.80;7.00;;;;;;;9.14;58.03;99351.41;5106643;28;42748;-74
2021/04/02 06:25:48;;;;;;;7.60;6.60;;;;;;;9.25;57.75;99352.59;5106858;28;40610;-74
2021/04/02 06:28:19;;;;;;;8.07;6.70;;;;;;;9.41;57.18;99363.22;5107809;28;42170;-73
2021/04/02 06:30:50;;;;;;;7.47;6.77;;;;;;;9.67;56.93;99352.22;5088851;28;43424;-74
2021/04/02 06:33:18;;;;;;;7.20;6.50;;;;;;;9.87;56.08;99358.28;5105847;28;42056;-74
2021/04/02 06:35:45;;;;;;;6.67;6.07;;;;;;;10.02;55.68;99365.41;5107141;28;41470;-74
2021/04/02 06:38:12;;;;;;;6.20;5.60;;;;;;;10.11;55.45;99367.59;5106330;28;41626;-74
2021/04/02 06:40:39;;;;;;;6.20;5.70;;;;;;;10.24;55.25;99368.69;5088004;28;43233;-74
2021/04/02 06:43:06;;;;;;;5.37;4.87;;;;;;;10.43;54.93;99365.91;5088862;28;41791;-74
2021/04/02 06:45:33;;;;;;;5.70;5.20;;;;;;;10.61;54.09;99375.53;5106321;28;41183;-75
2021/04/02 06:48:15;;;;;;;4.53;4.13;;;;;;;10.87;53.60;99378.53;5087187;28;42047;-73
2021/04/02 06:50:42;;;;;;;5.00;4.50;;;;;;;11.07;53.18;99387.06;5088538;28;42992;-74
2021/04/02 06:53:12;;;;;;;4.43;4.13;;;;;;;11.20;52.02;99399.63;5106497;28;41692;-74
2021/04/02 06:55:40;;;;;;;3.93;3.63;;;;;;;11.34;51.84;99395.28;5106525;28;41451;-74
2021/04/02 06:58:10;;;;;;;3.83;3.53;;;;;;;11.51;51.48;99395.13;5102816;28;41284;-73
2021/04/02 07:00:39;;;;;;;4.30;3.90;;;;;;;11.64;50.93;99397.94;5084442;28;43134;-73
2021/04/02 07:03:08;;;;;;;3.30;3.00;;;;;;;11.85;50.64;99380.81;5105849;28;43021;-74
2021/04/02 07:05:36;;;;;;;3.63;3.37;;;;;;;11.92;49.65;99391.91;5088684;28;40338;-74
2021/04/02 07:08:06;;;;;;;3.43;3.20;;;;;;;12.22;49.98;99394.53;5105427;27;41463;-74
2021/04/02 07:10:34;;;;;;;3.70;3.27;;;;;;;12.45;48.41;99411.72;5070902;28;42657;-74
2021/04/02 07:13:04;;;;;;;3.10;2.90;;;;;;;12.54;47.95;99412.00;5105240;27;42425;-74
2021/04/02 07:15:35;;;;;;;3.23;3.03;;;;;;;12.42;47.16;99412.75;5106028;28;40974;-74
2021/04/02 07:18:04;;;;;;;3.60;3.20;;;;;;;12.57;48.13;99422.44;5087792;28;41333;-74
2021/04/02 07:20:33;;;;;;;2.87;2.60;;;;;;;12.62;47.51;99418.63;5106345;28;42153;-74
2021/04/02 07:23:01;;;;;;;3.00;2.80;;;;;;;12.62;47.08;99423.94;5106311;28;42042;-73
2021/04/02 07:25:29;;;;;;;3.77;2.83;;;;;;;12.61;47.28;99419.63;5105422;28;41942;-74
2021/04/02 07:27:57;;;;;;;3.40;3.10;;;;;;;12.53;46.94;99418.25;5067657;28;40991;-74
2021/04/02 07:30:26;;;;;;;3.63;3.33;;;;;;;12.41;47.22;99421.66;5087860;28;42398;-74
2021/04/02 07:32:54;;;;;;;3.50;3.30;;;;;;;12.45;47.23;99420.53;5105739;28;43040;-74
2021/04/02 07:35:23;;;;;;;4.13;3.23;;;;;;;12.27;47.42;99426.09;5101900;28;40778;-74
2021/04/02 07:37:54;;;;;;;5.73;5.20;;;;;;;12.26;47.89;99419.94;5105936;28;41480;-74
2021/04/02 07:40:24;;;;;;;5.50;4.80;;;;;;;12.45;47.95;99417.03;5105167;28;43311;-74
2021/04/02 07:42:57;;;;;;;3.10;2.90;;;;;;;12.47;47.01;99426.63;5105430;28;41921;-74
2021/04/02 07:45:26;;;;;;;3.13;2.90;;;;;;;12.52;47.31;99424.53;5088691;28;40615;-73
2021/04/02 07:47:55;;;;;;;3.07;2.83;;;;;;;12.49;46.58;99415.88;5105863;28;41361;-74
2021/04/02 07:50:36;;;;;;;2.90;2.70;;;;;;;12.66;46.89;99410.38;5087444;28;43629;-74
2021/04/02 07:53:03;;;;;;;3.17;2.97;;;;;;;12.80;45.99;99422.81;5084430;28;42667;-74
2021/04/02 07:55:31;;;;;;;3.43;3.13;;;;;;;12.90;45.92;99418.63;5105701;28;40396;-74
2021/04/02 07:58:02;;;;;;;2.83;2.63;;;;;;;13.19;45.85;99425.66;5087672;28;42037;-74
2021/04/02 08:00:32;;;;;;;2.93;2.70;;;;;;;13.28;44.44;99419.72;5087721;28;43325;-75
2021/04/02 08:03:11;;;;;;;2.70;2.50;;;;;;;13.69;44.46;99431.28;5103237;28;41626;-74
2021/04/02 08:05:45;;;;;;;2.77;2.57;;;;;;;13.87;44.34;99436.25;5106113;28;41659;-73
2021/04/02 08:08:15;;;;;;;3.13;2.83;;;;;;;13.82;43.97;99425.06;5106328;28;42401;-73
2021/04/02 08:11:01;;;;;;;3.33;3.03;;;;;;;13.74;43.98;99434.50;5087655;28;41692;-74
2021/04/02 08:13:28;;;;;;;2.93;2.73;;;;;;;13.61;44.04;99437.09;5105317;28;42852;-74
2021/04/02 08:15:58;;;;;;;3.23;2.93;;;;;;;13.58;45.01;99432.88;5087147;28;40548;-74
2021/04/02 08:18:26;;;;;;;2.70;2.50;;;;;;;13.59;44.99;99428.41;5104603;28;42568;-74
2021/04/02 08:20:56;;;;;;;3.30;3.10;;;;;;;13.59;45.00;99428.41;5109746;27;42792;-73
2021/04/02 08:23:24;;;;;;;2.73;2.53;;;;;;;13.72;44.98;99425.78;5112324;28;42378;-74
2021/04/02 08:25:55;;;;;;;4.60;2.90;;;;;;;13.81;44.59;99436.66;5112868;28;40968;-73
2021/04/02 08:28:25;;;;;;;2.80;2.60;;;;;;;13.85;44.06;99443.47;5081892;28;42389;-74
2021/04/02 08:30:54;;;;;;;3.23;2.50;;;;;;;13.99;43.63;99437.22;5092500;28;45321;-74
2021/04/02 08:33:23;;;;;;;3.07;2.87;;;;;;;14.15;43.47;99429.91;5091938;28;43002;-74
2021/04/02 08:35:51;;;;;;;2.87;2.57;;;;;;;14.29;43.50;99434.31;5093757;28;40062;-74
2021/04/02 08:38:18;;;;;;;3.30;2.70;;;;;;;14.41;43.29;99433.50;5127970;27;41404;-74
2021/04/02 08:40:46;;;;;;;2.77;2.57;;;;;;;14.42;42.76;99440.53;5094921;28;44555;-75
2021/04/02 08:43:17;;;;;;;2.97;2.77;;;;;;;14.50;42.75;99438.19;5086069;28;42297;-75
2021/04/02 08:45:45;;;;;;;3.10;2.90;;;;;;;14.54;42.19;99450.34;5057807;28;42017;-75
2021/04/02 08:48:21;;;;;;;3.47;3.17;;;;;;;14.65;42.88;99449.59;5091443;28;42388;-75
2021/04/02 08:50:49;;;;;;;2.90;2.70;;;;;;;14.70;42.75;99445.66;5089969;28;43071;-75
2021/04/02 08:53:16;;;;;;;6.17;5.47;;;;;;;14.95;42.39;99443.94;5094680;28;42192;-75
2021/04/02 08:55:44;;;;;;;4.80;3.23;;;;;;;15.07;42.03;99448.41;5078024;28;42404;-76
2021/04/02 08:58:11;;;;;;;2.37;2.27;;;;;;;15.11;41.13;99455.19;5099589;28;41621;-73
2021/04/02 09:00:41;;;;;;;3.57;2.93;;;;;;;15.11;41.19;99452.53;5094970;28;42748;-75
2021/04/02 09:03:10;;;;;;;3.30;3.00;;;;;;;15.17;40.89;99448.56;5074226;28;41434;-74
2021/04/02 09:05:37;;;;;;;2.77;2.57;;;;;;;15.26;40.40;99454.09;5084934;27;41333;-74
2021/04/02 09:08:05;;;;;;;2.43;2.23;;;;;;;15.16;40.66;99458.41;5097114;28;41297;-75
2021/04/02 09:10:32;;;;;;;2.87;2.67;;;;;;;15.21;40.83;99444.69;5080290;28;44476;-73
2021/04/02 09:12:59;;;;;;;2.97;2.50;;;;;;;15.31;40.69;99451.97;5113909;28;41823;-75
2021/04/02 09:15:33;;;;;;;2.30;2.10;;;;;;;15.31;39.48;99451.97;5097060;28;41514;-74
2021/04/02 09:18:18;;;;;;;2.53;2.33;;;;;;;15.42;40.75;99446.69;5076960;28;41757;-74
2021/04/02 09:20:45;;;;;;;2.40;2.23;;;;;;;15.51;40.10;99441.63;5093274;28;43935;-74
2021/04/02 09:23:13;;;;;;;2.17;2.07;;;;;;;15.57;39.27;99451.91;5093133;28;41924;-74
2021/04/02 09:25:44;;;;;;;2.07;1.90;;;;;;;15.60;38.82;99457.00;5093562;28;41231;-73
2021/04/02 09:28:11;;;;;;;2.50;2.30;;;;;;;15.58;38.95;99449.09;5110675;28;40977;-75
2021/04/02 09:30:38;;;;;;;2.10;2.00;;;;;;;15.59;39.14;99455.28;5111051;27;42781;-75
2021/04/02 09:33:18;;;;;;;2.30;2.10;;;;;;;15.43;39.18;99434.19;5109139;28;42993;-75
2021/04/02 09:35:47;;;;;;;2.87;2.17;;;;;;;15.54;39.50;99452.09;5109920;28;41857;-76
2021/04/02 09:38:14;;;;;;;2.30;1.90;;;;;;;15.45;39.26;99443.78;5091934;28;41297;-74
2021/04/02 09:40:45;;;;;;;2.20;2.00;;;;;;;15.32;39.68;99453.66;5110712;28;42428;-74
2021/04/02 09:43:13;;;;;;;2.67;2.07;;;;;;;15.21;39.94;99448.22;5071727;28;42408;-75
2021/04/02 09:45:40;;;;;;;3.60;2.63;;;;;;;15.08;40.11;99450.09;5071951;28;41490;-73
2021/04/02 09:48:20;;;;;;;2.80;2.60;;;;;;;15.04;40.38;99448.59;5098636;28;41621;-75
2021/04/02 09:50:47;;;;;;;2.40;2.13;;;;;;;14.91;40.37;99447.78;5092398;28;43537;-74
2021/04/02 09:53:15;;;;;;;2.60;2.23;;;;;;;14.79;40.63;99448.63;5091439;28;43065;-74
2021/04/02 09:55:43;;;;;;;2.70;2.50;;;;;;;14.79;40.75;99445.97;5076108;28;39761;-73
2021/04/02 09:58:10;;;;;;;1.97;1.87;;;;;;;14.73;40.77;99442.75;5109665;28;42667;-75
2021/04/02 10:00:38;;;;;;;2.70;2.50;;;;;;;14.65;40.81;99450.44;5091619;28;42779;-76
2021/04/02 10:03:12;;;;;;;2.20;2.10;;;;;;;14.58;41.12;99445.66;5091414;28;41891;-75
2021/04/02 10:05:40;;;;;;;2.50;2.30;;;;;;;14.64;41.68;99440.75;5091715;28;40396;-76
2021/04/02 10:08:07;;;;;;;3.00;2.57;;;;;;;14.75;41.70;99426.66;5109701;28;41319;-73
2021/04/02 10:10:35;;;;;;;2.60;2.40;;;;;;;14.84;40.38;99439.34;5091459;28;43360;-73
2021/04/02 10:13:02;;;;;;;2.40;2.20;;;;;;;14.99;41.05;99434.72;5090446;28;42791;-74
2021/04/02 10:15:29;;;;;;;4.30;2.50;;;;;;;15.12;40.57;99432.03;5075420;28;40002;-74
2021/04/02 10:17:56;;;;;;;2.33;2.17;;;;;;;15.20;39.88;99440.38;5091157;28;42422;-73
2021/04/02 10:20:24;;;;;;;2.53;2.33;;;;;;;15.23;39.76;99446.31;5091720;28;42744;-74
2021/04/02 10:22:51;;;;;;;2.40;2.20;;;;;;;15.25;39.88;99420.38;5109231;28;42278;-74
2021/04/02 10:25:18;;;;;;;2.70;2.50;;;;;;;15.53;39.21;99440.56;5108559;28;41718;-74
2021/04/02 10:27:45;;;;;;;2.23;2.13;;;;;;;15.64;39.26;99440.66;5073365;28;42864;-74
2021/04/02 10:30:14;;;;;;;2.50;2.30;;;;;;;15.82;39.03;99435.78;5088404;28;43417;-73
2021/04/02 10:32:41;;;;;;;2.43;2.27;;;;;;;15.88;38.27;99434.44;5090837;28;42513;-74
2021/04/02 10:35:09;;;;;;;2.50;2.30;;;;;;;16.03;38.54;99431.47;5109010;28;40722;-73
2021/04/02 10:37:36;;;;;;;2.40;2.10;;;;;;;16.12;38.21;99438.78;5091065;28;40721;-76
2021/04/02 10:40:06;;;;;;;1.87;1.77;;;;;;;16.20;38.55;99413.28;5109281;28;42658;-74
2021/04/02 10:42:33;;;;;;;2.53;2.27;;;;;;;16.38;37.82;99438.63;5090347;28;42596;-75
2021/04/02 10:45:00;;;;;;;2.43;2.00;;;;;;;16.38;38.10;99423.44;5090264;28;40822;-74
2021/04/02 10:47:27;;;;;;;2.50;1.90;;;;;;;16.31;38.46;99408.00;5109806;28;41478;-74
2021/04/02 10:49:54;;;;;;;2.03;1.93;;;;;;;16.45;38.47;99419.31;5108865;28;42313;-74
2021/04/02 10:52:21;;;;;;;2.13;1.93;;;;;;;16.54;38.41;99417.75;5074189;28;42747;-74
2021/04/02 10:54:48;;;;;;;2.37;2.20;;;;;;;16.59;37.73;99425.41;5091046;28;41611;-75
2021/04/02 10:57:16;;;;;;;2.20;2.10;;;;;;;16.73;38.26;99418.03;5090192;28;41887;-75
2021/04/02 10:59:43;;;;;;;2.60;2.40;;;;;;;16.72;37.03;99419.00;5109104;28;43326;-73
2021/04/02 11:02:10;;;;;;;2.63;2.30;;;;;;;16.86;36.25;99425.94;5091038;28;43062;-74
2021/04/02 11:04:40;;;;;;;2.40;2.20;;;;;;;17.02;36.81;99417.56;5108874;28;41199;-74
2021/04/02 11:07:07;;;;;;;2.87;2.67;;;;;;;17.02;35.86;99422.91;5091179;28;40779;-74
2021/04/02 11:09:34;;;;;;;3.23;2.50;;;;;;;16.95;35.57;99421.69;5090945;28;42184;-73
2021/04/02 11:12:01;;;;;;;2.57;2.37;;;;;;;16.93;36.14;99418.31;5090710;28;42184;-75
2021/04/02 11:14:29;;;;;;;2.70;2.50;;;;;;;17.01;36.80;99407.81;5090588;28;41040;-75
2021/04/02 11:16:57;;;;;;;2.13;2.03;;;;;;;17.20;37.24;99397.31;5110138;28;41332;-74
2021/04/02 11:19:24;;;;;;;2.20;2.00;;;;;;;17.33;36.04;99400.72;5107347;28;42026;-74
2021/04/02 11:21:51;;;;;;;2.60;2.40;;;;;;;17.36;36.19;99400.47;5105161;28;43054;-75
2021/04/02 11:24:18;;;;;;;2.40;2.20;;;;;;;17.42;35.51;99399.97;5077664;28;40408;-74
2021/04/02 11:26:45;;;;;;;2.57;2.37;;;;;;;17.51;36.07;99396.53;5054576;28;41714;-74
2021/04/02 11:29:12;;;;;;;2.77;2.57;;;;;;;17.62;35.36;99405.50;5087754;28;42661;-74
2021/04/02 11:31:40;;;;;;;3.47;2.90;;;;;;;17.82;34.98;99396.69;5108429;28;42105;-74
2021/04/02 11:34:07;;;;;;;3.00;2.60;;;;;;;18.06;35.21;99399.13;5088969;28;40919;-74
2021/04/02 11:36:34;;;;;;;2.23;2.03;;;;;;;18.19;34.05;99389.06;5086508;28;42014;-74
2021/04/02 11:39:03;;;;;;;2.60;2.40;;;;;;;18.67;33.33;99406.31;5087873;28;42652;-74
2021/04/02 11:41:30;;;;;;;2.43;2.23;;;;;;;19.43;33.74;99398.66;5096072;28;42851;-75
2021/04/02 11:43:57;;;;;;;2.80;2.60;;;;;;;19.73;32.33;99403.97;5088486;28;41656;-74
2021/04/02 11:46:24;;;;;;;2.27;2.17;;;;;;;20.01;31.91;99404.13;5084835;28;42437;-74
2021/04/02 11:48:52;;;;;;;2.30;2.20;;;;;;;20.19;30.97;99393.50;5108067;28;43520;-74
2021/04/02 11:51:19;;;;;;;2.20;2.10;;;;;;;20.76;31.07;99384.47;5108330;28;43207;-74